Time;durP1;ratioP1;P1;durP2;ratioP2;P2;SDS_P1;SDS_P2;PMS_P1;PMS_P2;Temp;Humidity;BMP_temperature;BMP_pressure;BME280_temperature;BME280_humidity;BME280_pressure;Samples;Min_cycle;Max_cycle;Signal;HPM_P1;HPM_P2
2022/04/23 00:00:26;;;;;;;21.40;13.00;;;;;;;12.18;64.22;97481.59;4430329;32;20073;-85
2022/04/23 00:02:52;;;;;;;25.20;13.30;;;;;;;11.97;65.54;97480.72;4430301;32;20396;-85
2022/04/23 00:05:17;;;;;;;22.17;13.00;;;;;;;12.06;65.23;97474.69;4449602;32;20154;-84
2022/04/23 00:07:43;;;;;;;24.63;13.00;;;;;;;11.98;65.74;97483.25;4455507;32;20150;-86
2022/04/23 00:10:08;;;;;;;22.05;12.45;;;;;;;12.11;65.30;97474.31;4455237;32;20076;-84
2022/04/23 00:12:34;;;;;;;22.70;12.23;;;;;;;11.98;65.30;97475.31;4455306;32;20349;-85
2022/04/23 00:15:00;;;;;;;21.65;11.90;;;;;;;11.85;65.32;97473.78;4454923;32;20093;-84
2022/04/23 00:17:25;;;;;;;20.10;11.63;;;;;;;11.87;65.63;97482.41;4440918;32;20169;-84
2022/04/23 00:19:50;;;;;;;21.60;12.18;;;;;;;12.06;64.95;97479.97;4440808;32;20123;-84
2022/04/23 00:22:16;;;;;;;22.58;12.63;;;;;;;12.18;64.84;97481.59;4454806;32;20112;-83
2022/04/23 00:24:42;;;;;;;22.67;12.90;;;;;;;12.16;65.00;97483.53;4455032;32;20102;-90
2022/04/23 00:27:08;;;;;;;21.85;11.93;;;;;;;12.33;64.79;97476.03;4454758;32;20202;-88
2022/04/23 00:29:35;;;;;;;19.62;11.15;;;;;;;12.36;64.27;97473.97;4440744;32;20112;-85
2022/04/23 00:32:01;;;;;;;;;;;;;;;12.18;64.48;97476.31;4455118;32;20541;-83
2022/04/23 00:34:26;;;;;;;21.30;11.93;;;;;;;12.38;63.76;97474.69;4454917;32;19995;-83
2022/04/23 00:36:52;;;;;;;22.90;12.20;;;;;;;12.36;63.81;97476.63;4454696;32;20449;-84
2022/04/23 00:39:17;;;;;;;19.77;11.32;;;;;;;12.34;64.14;97477.69;4427744;32;20388;-83
2022/04/23 00:41:51;;;;;;;20.33;12.00;;;;;;;12.35;64.17;97476.75;4454510;32;20101;-83
2022/04/23 00:44:17;;;;;;;22.17;12.70;;;;;;;12.52;63.99;97475.34;4456088;32;20566;-83
2022/04/23 00:46:43;;;;;;;21.83;11.82;;;;;;;12.37;64.26;97475.63;4457069;32;20089;-83
2022/04/23 00:49:09;;;;;;;21.75;11.20;;;;;;;12.42;64.03;97477.06;4457000;32;20107;-83
2022/04/23 00:51:35;;;;;;;20.20;11.95;;;;;;;12.53;63.10;97483.13;4429994;32;20123;-82
2022/04/23 00:54:05;;;;;;;24.48;12.52;;;;;;;12.49;63.21;97475.59;4456947;32;20136;-83
2022/04/23 00:56:32;;;;;;;22.15;12.13;;;;;;;12.46;63.44;97479.34;4457070;32;20369;-83
2022/04/23 00:58:57;;;;;;;20.85;11.48;;;;;;;12.55;63.31;97477.72;4456867;32;20225;-83
2022/04/23 01:01:24;;;;;;;19.20;10.88;;;;;;;12.53;63.33;97477.84;4442784;32;20104;-82
2022/04/23 01:03:51;;;;;;;20.75;11.52;;;;;;;12.43;63.07;97481.38;4457089;32;20493;-83
2022/04/23 01:06:17;;;;;;;21.05;11.12;;;;;;;12.52;62.81;97478.00;4442504;32;20444;-83
2022/04/23 01:08:43;;;;;;;19.65;10.68;;;;;;;12.44;62.74;97485.69;4456739;32;20093;-83
2022/04/23 01:11:08;;;;;;;20.98;11.68;;;;;;;12.45;62.94;97480.28;4429557;32;20131;-83
2022/04/23 01:13:34;;;;;;;19.77;11.75;;;;;;;12.46;63.13;97487.25;4442544;32;20105;-83
2022/04/23 01:16:05;;;;;;;20.23;11.70;;;;;;;12.38;63.65;97482.62;4442423;32;20097;-84
2022/04/23 01:18:31;;;;;;;18.75;11.32;;;;;;;12.27;64.06;97481.84;4442303;32;20162;-83
2022/04/23 01:20:57;;;;;;;20.92;11.70;;;;;;;12.07;64.62;97486.94;4442447;32;20753;-84
2022/04/23 01:23:24;;;;;;;19.90;10.95;;;;;;;12.27;63.87;97487.94;4442482;32;20140;-83
2022/04/23 01:25:53;;;;;;;19.75;11.45;;;;;;;12.37;63.65;97485.37;4456541;32;20444;-83
2022/04/23 01:28:20;;;;;;;19.92;11.07;;;;;;;12.25;64.08;97486.41;4442196;32;20236;-83
2022/04/23 01:30:48;;;;;;;22.30;11.77;;;;;;;12.33;64.07;97483.97;4442501;32;20105;-84
2022/04/23 01:33:13;;;;;;;23.38;11.82;;;;;;;12.18;64.47;97478.97;4442507;32;20097;-84
2022/04/23 01:35:39;;;;;;;19.98;11.27;;;;;;;12.28;64.40;97476.41;4456408;32;20144;-83
2022/04/23 01:38:04;;;;;;;20.92;12.32;;;;;;;12.34;64.15;97478.56;4456362;32;20392;-83
2022/04/23 01:40:30;;;;;;;19.70;11.43;;;;;;;12.21;64.89;97477.87;4456418;32;20342;-83
2022/04/23 01:42:55;;;;;;;22.30;11.95;;;;;;;12.43;64.43;97470.81;4456364;32;20102;-83
2022/04/23 01:45:21;;;;;;;21.05;11.85;;;;;;;12.44;64.27;97472.50;4456259;32;20089;-83
2022/04/23 01:47:46;;;;;;;19.25;11.65;;;;;;;12.33;64.40;97479.50;4441990;32;20364;-83
2022/04/23 01:50:11;;;;;;;20.67;11.85;;;;;;;12.48;63.97;97477.41;4456172;32;20093;-83
2022/04/23 01:52:37;;;;;;;21.27;11.90;;;;;;;12.57;63.90;97479.28;4442255;32;20499;-83
2022/04/23 01:55:03;;;;;;;20.33;11.75;;;;;;;12.47;64.20;97482.81;4455181;32;20073;-83
2022/04/23 01:57:28;;;;;;;21.27;11.80;;;;;;;12.42;64.44;97485.84;4442123;32;20107;-83
2022/04/23 01:59:53;;;;;;;20.98;12.73;;;;;;;12.49;64.17;97486.16;4456190;32;20119;-82
2022/04/23 02:02:19;;;;;;;22.15;12.43;;;;;;;12.34;64.56;97486.47;4442053;32;20353;-82
2022/04/23 02:04:45;;;;;;;18.83;11.60;;;;;;;12.46;64.45;97494.31;4456231;32;20085;-83
2022/04/23 02:07:10;;;;;;;21.40;12.07;;;;;;;12.37;64.57;97491.50;4442275;32;20077;-82
2022/04/23 02:09:36;;;;;;;19.15;11.63;;;;;;;12.51;64.18;97492.97;4456152;32;20089;-83
2022/04/23 02:12:01;;;;;;;21.23;11.90;;;;;;;12.50;64.17;97491.31;4442132;32;20146;-82
2022/04/23 02:14:28;;;;;;;19.92;11.15;;;;;;;12.53;64.11;97491.03;4441937;32;20089;-82
2022/04/23 02:16:53;;;;;;;20.17;10.57;;;;;;;12.55;63.96;97486.47;4442165;32;20148;-83
2022/04/23 02:19:19;;;;;;;19.67;11.55;;;;;;;12.44;64.02;97496.25;4441820;32;20373;-83
2022/04/23 02:21:45;;;;;;;21.60;11.82;;;;;;;12.49;63.54;97494.09;4441919;32;20379;-82
2022/04/23 02:24:11;;;;;;;21.27;11.68;;;;;;;12.33;64.44;97492.72;4456117;32;20153;-82
2022/04/23 02:26:36;;;;;;;22.02;11.80;;;;;;;12.47;64.35;97496.00;4456029;32;20085;-82
2022/04/23 02:29:02;;;;;;;21.73;12.55;;;;;;;12.46;64.20;97500.47;4456118;32;20093;-83
2022/04/23 02:31:27;;;;;;;21.33;12.20;;;;;;;12.38;64.58;97501.09;4442036;32;20132;-83
2022/04/23 02:33:53;;;;;;;22.83;11.95;;;;;;;12.37;64.92;97495.94;4455979;32;20077;-82
2022/04/23 02:36:18;;;;;;;20.80;11.82;;;;;;;12.38;64.92;97498.47;4456010;32;20184;-82
2022/04/23 02:38:44;;;;;;;19.95;11.65;;;;;;;12.45;64.49;97497.94;4455945;32;20147;-82
2022/04/23 02:41:10;;;;;;;20.58;11.88;;;;;;;12.45;64.62;97503.22;4455845;32;20123;-83
2022/04/23 02:43:38;;;;;;;22.48;11.85;;;;;;;12.42;64.65;97506.97;4455953;32;20563;-82
2022/04/23 02:46:06;;;;;;;20.15;11.40;;;;;;;12.54;64.27;97505.12;4442173;32;20078;-83
2022/04/23 02:48:32;;;;;;;20.50;11.82;;;;;;;12.33;64.37;97507.72;4455935;32;20155;-83
2022/04/23 02:50:57;;;;;;;20.25;11.82;;;;;;;12.30;64.88;97505.31;4455980;32;20115;-83
2022/04/23 02:53:23;;;;;;;20.50;11.38;;;;;;;12.26;64.47;97507.38;4455934;32;20139;-82
2022/04/23 02:55:48;;;;;;;18.87;10.75;;;;;;;12.12;65.36;97507.69;4441729;32;20429;-83
2022/04/23 02:58:14;;;;;;;21.87;11.43;;;;;;;12.28;64.56;97507.25;4455814;32;20449;-83
2022/04/23 03:00:41;;;;;;;20.65;11.73;;;;;;;12.34;64.67;97501.47;4455816;32;20154;-83
2022/04/23 03:03:08;;;;;;;20.67;11.52;;;;;;;12.39;64.38;97500.13;4455857;32;20436;-83
2022/04/23 03:05:34;;;;;;;20.27;11.48;;;;;;;12.45;64.29;97503.22;4441610;32;20155;-83
2022/04/23 03:08:02;;;;;;;20.70;11.85;;;;;;;12.42;64.37;97500.84;4455554;32;20101;-83
2022/04/23 03:10:29;;;;;;;20.65;11.52;;;;;;;12.36;64.77;97502.16;4455783;32;20388;-83
2022/04/23 03:12:57;;;;;;;20.88;11.90;;;;;;;12.36;64.70;97505.69;4441673;32;20116;-83
2022/04/23 03:15:25;;;;;;;21.10;11.68;;;;;;;12.38;64.91;97508.16;4455894;32;20115;-83
2022/04/23 03:18:11;;;;;;;20.77;11.70;;;;;;;12.23;65.17;97512.94;4442157;32;20127;-83
2022/04/23 03:20:38;;;;;;;20.55;11.23;;;;;;;12.22;65.22;97518.31;4441867;32;20129;-84
2022/04/23 03:23:04;;;;;;;20.62;11.35;;;;;;;12.42;64.33;97514.91;4441793;32;20452;-84
2022/04/23 03:25:31;;;;;;;20.45;11.25;;;;;;;12.22;64.93;97508.59;4441713;32;20085;-83
2022/04/23 03:27:57;;;;;;;21.15;11.27;;;;;;;12.11;65.36;97517.41;4455902;32;20113;-83
2022/04/23 03:30:22;;;;;;;20.37;11.75;;;;;;;12.16;65.25;97509.94;4455868;32;20471;-83
2022/04/23 03:32:48;;;;;;;19.65;10.80;;;;;;;12.06;65.33;97511.66;4428886;32;20090;-83
2022/04/23 03:35:14;;;;;;;21.83;10.63;;;;;;;12.04;65.67;97512.75;4455833;32;20420;-84
2022/04/23 03:37:40;;;;;;;21.17;11.82;;;;;;;12.10;65.68;97517.53;4428657;32;20113;-84
2022/04/23 03:40:18;;;;;;;22.20;12.37;;;;;;;12.20;65.29;97527.19;4441376;32;20264;-84
2022/04/23 03:42:48;;;;;;;20.37;11.50;;;;;;;12.26;65.46;97531.13;4455522;32;20089;-84
2022/04/23 03:45:14;;;;;;;20.67;11.65;;;;;;;12.11;66.35;97532.37;4455446;32;20175;-84
2022/04/23 03:47:44;;;;;;;22.35;11.88;;;;;;;12.31;65.69;97533.41;4441475;32;20121;-84
2022/04/23 03:50:10;;;;;;;24.45;13.35;;;;;;;12.27;65.98;97532.84;4441436;32;20101;-84
2022/04/23 03:52:35;;;;;;;20.37;12.10;;;;;;;12.19;65.99;97540.53;4455324;32;20151;-84
2022/04/23 03:55:01;;;;;;;19.85;11.32;;;;;;;12.25;65.64;97542.69;4441308;32;20093;-84
2022/04/23 03:57:26;;;;;;;20.77;10.77;;;;;;;12.06;66.13;97540.69;4441172;32;20475;-84
2022/04/23 03:59:52;;;;;;;20.25;11.07;;;;;;;12.03;66.09;97542.72;4455381;32;20444;-83
2022/04/23 04:02:17;;;;;;;19.30;10.63;;;;;;;12.00;66.14;97539.37;4440985;32;20093;-85
2022/04/23 04:04:43;;;;;;;21.02;11.15;;;;;;;12.10;65.93;97546.56;4455228;32;20107;-84
2022/04/23 04:07:09;;;;;;;21.42;12.02;;;;;;;12.01;66.55;97548.13;4441238;32;20100;-84
2022/04/23 04:09:35;;;;;;;21.12;10.35;;;;;;;12.13;66.24;97541.00;4455022;32;20132;-84
2022/04/23 04:12:03;;;;;;;19.62;10.93;;;;;;;12.11;66.15;97550.84;4441117;32;20093;-84
2022/04/23 04:14:30;;;;;;;20.20;11.70;;;;;;;12.05;66.09;97548.72;4455314;32;20440;-84
2022/04/23 04:16:58;;;;;;;19.63;11.30;;;;;;;12.02;66.39;97547.19;4455328;32;20450;-84
2022/04/23 04:19:26;;;;;;;21.00;11.32;;;;;;;12.22;65.97;97548.19;4456497;32;20529;-84
2022/04/23 04:21:51;;;;;;;20.40;11.20;;;;;;;12.20;66.14;97544.84;4443022;32;20427;-84
2022/04/23 04:24:17;;;;;;;19.83;11.18;;;;;;;12.26;65.95;97557.53;4429898;32;20098;-84
2022/04/23 04:26:43;;;;;;;20.50;11.15;;;;;;;12.28;65.92;97555.63;4456893;32;20433;-84
2022/04/23 04:29:09;;;;;;;21.35;11.35;;;;;;;12.38;65.70;97551.28;4442927;32;20089;-84
2022/04/23 04:31:48;;;;;;;19.08;11.27;;;;;;;12.38;65.85;97556.56;4442847;32;20143;-84
2022/04/23 04:34:21;;;;;;;19.98;11.07;;;;;;;12.43;65.62;97558.00;4456914;32;20093;-84
2022/04/23 04:36:48;;;;;;;19.92;11.43;;;;;;;12.22;66.00;97564.03;4442820;32;20102;-84
2022/04/23 04:39:15;;;;;;;22.02;11.48;;;;;;;12.43;65.57;97560.63;4456783;32;20119;-84
2022/04/23 04:41:40;;;;;;;22.50;11.27;;;;;;;12.45;65.41;97559.53;4442758;32;20085;-84
2022/04/23 04:44:06;;;;;;;20.45;11.23;;;;;;;12.60;64.94;97557.44;4456757;32;20085;-84
2022/04/23 04:46:33;;;;;;;19.80;11.15;;;;;;;12.54;65.29;97564.06;4456646;32;20088;-84
2022/04/23 04:48:58;;;;;;;18.62;10.70;;;;;;;12.74;64.84;97556.28;4442692;32;20123;-84
2022/04/23 04:51:24;;;;;;;19.05;11.20;;;;;;;12.84;64.63;97564.28;4456967;32;20093;-84
2022/04/23 04:53:51;;;;;;;17.42;10.13;;;;;;;12.87;64.55;97564.03;4443010;32;20085;-83
2022/04/23 04:56:17;;;;;;;17.48;10.13;;;;;;;12.93;64.46;97559.06;4456894;32;20093;-83
2022/04/23 04:58:43;;;;;;;17.23;9.95;;;;;;;13.05;64.06;97559.00;4456694;32;20119;-83
2022/04/23 05:01:09;;;;;;;19.15;10.80;;;;;;;13.12;63.37;97554.87;4456753;32;20569;-83
2022/04/23 05:03:35;;;;;;;18.75;10.10;;;;;;;13.11;63.55;97558.47;4456595;32;20093;-83
2022/04/23 05:06:01;;;;;;;17.48;9.80;;;;;;;13.22;63.44;97566.34;4442859;32;20113;-83
2022/04/23 05:08:26;;;;;;;18.50;10.27;;;;;;;13.17;63.63;97564.09;4456919;32;20494;-83
2022/04/23 05:10:52;;;;;;;18.30;9.98;;;;;;;13.29;63.26;97569.28;4456725;32;20085;-83
2022/04/23 05:13:17;;;;;;;16.70;9.35;;;;;;;13.41;63.21;97563.00;4456788;32;20146;-83
2022/04/23 05:15:44;;;;;;;17.45;9.85;;;;;;;13.50;62.97;97564.88;4456813;32;20479;-83
2022/04/23 05:18:10;;;;;;;16.40;9.35;;;;;;;13.60;62.73;97569.34;4456767;32;20154;-83
2022/04/23 05:20:36;;;;;;;17.45;9.63;;;;;;;13.66;62.62;97572.31;4456807;32;20108;-83
2022/04/23 05:23:01;;;;;;;18.50;10.38;;;;;;;13.61;62.78;97574.50;4442691;32;20436;-83
2022/04/23 05:25:27;;;;;;;16.90;9.45;;;;;;;13.70;62.00;97578.19;4456753;32;20101;-83
2022/04/23 05:27:52;;;;;;;17.80;9.63;;;;;;;13.71;61.50;97579.84;4456880;32;20109;-83
2022/04/23 05:30:18;;;;;;;17.50;9.93;;;;;;;13.59;61.71;97589.69;4456671;32;20115;-83
2022/04/23 05:32:43;;;;;;;17.25;9.57;;;;;;;13.66;61.53;97590.84;4429776;32;20142;-83
2022/04/23 05:35:09;;;;;;;18.02;9.45;;;;;;;13.64;61.53;97587.50;4456711;32;20119;-83
2022/04/23 05:37:34;;;;;;;18.40;9.68;;;;;;;13.44;61.95;97585.72;4456771;32;20100;-84
2022/04/23 05:40:00;;;;;;;16.45;9.63;;;;;;;13.60;61.74;97587.88;4456794;32;20092;-84
2022/04/23 05:42:25;;;;;;;18.00;9.80;;;;;;;13.78;61.68;97581.00;4456528;32;20132;-83
2022/04/23 05:44:50;;;;;;;16.35;9.35;;;;;;;13.89;61.89;97583.56;4456745;32;20119;-83
2022/04/23 05:47:16;;;;;;;16.30;9.27;;;;;;;14.03;61.34;97584.97;4456309;32;20137;-83
2022/04/23 05:49:41;;;;;;;16.40;9.05;;;;;;;14.00;61.11;97581.75;4442203;32;20436;-83
2022/04/23 05:52:07;;;;;;;17.25;9.23;;;;;;;13.98;61.21;97583.72;4442310;32;20127;-83
2022/04/23 05:54:32;;;;;;;16.58;8.68;;;;;;;14.23;60.42;97588.50;4442089;32;20132;-83
2022/04/23 05:56:58;;;;;;;17.23;9.00;;;;;;;14.29;60.19;97589.78;4456304;32;20369;-84
2022/04/23 05:59:25;;;;;;;17.27;8.45;;;;;;;14.57;58.43;97590.00;4456132;32;20081;-84
2022/04/23 06:01:50;;;;;;;16.10;8.70;;;;;;;14.70;58.10;97588.75;4456171;32;20171;-84
2022/04/23 06:04:16;;;;;;;15.70;8.52;;;;;;;14.81;56.92;97598.38;4456227;32;20101;-83
2022/04/23 06:06:41;;;;;;;15.93;8.35;;;;;;;14.83;56.36;97599.06;4456168;32;20440;-84
2022/04/23 06:09:07;;;;;;;13.95;8.20;;;;;;;15.20;55.98;97598.34;4456228;32;20085;-83
2022/04/23 06:11:32;;;;;;;14.63;8.20;;;;;;;15.36;56.12;97602.25;4441948;32;20096;-83
2022/04/23 06:13:58;;;;;;;15.85;8.32;;;;;;;15.62;54.77;97605.91;4442024;32;20154;-83
2022/04/23 06:16:23;;;;;;;16.08;8.77;;;;;;;15.83;53.84;97605.75;4442090;32;20140;-85
2022/04/23 06:18:48;;;;;;;13.38;7.32;;;;;;;15.85;54.44;97610.91;4441970;32;20105;-84
2022/04/23 06:21:14;;;;;;;14.48;7.90;;;;;;;15.59;52.71;97606.22;4456068;32;20084;-84
2022/04/23 06:23:39;;;;;;;15.07;7.95;;;;;;;15.64;53.38;97608.44;4442028;32;20101;-84
2022/04/23 06:26:05;;;;;;;14.73;8.30;;;;;;;15.65;53.27;97605.66;4441926;32;20080;-84
2022/04/23 06:28:31;;;;;;;14.87;7.95;;;;;;;15.51;53.82;97616.69;4442201;32;20138;-84
2022/04/23 06:30:56;;;;;;;13.57;7.72;;;;;;;15.65;53.61;97626.88;4456042;32;20416;-84
2022/04/23 06:33:22;;;;;;;15.77;8.52;;;;;;;15.72;53.63;97632.44;4456067;32;20139;-84
2022/04/23 06:35:47;;;;;;;14.85;8.25;;;;;;;15.59;54.02;97639.88;4441894;32;20123;-84
2022/04/23 06:38:13;;;;;;;15.23;8.25;;;;;;;15.45;53.95;97643.81;4456024;32;20080;-84
2022/04/23 06:40:38;;;;;;;15.32;7.93;;;;;;;15.60;54.19;97653.00;4441358;32;20434;-82
2022/04/23 06:43:03;;;;;;;14.32;7.68;;;;;;;15.69;54.24;97648.69;4455866;32;20088;-83
2022/04/23 06:45:29;;;;;;;16.42;8.48;;;;;;;15.93;53.69;97650.84;4442007;32;20413;-82
2022/04/23 06:48:04;;;;;;;14.48;7.45;;;;;;;16.12;53.65;97645.47;4455873;32;20077;-82
2022/04/23 06:50:33;;;;;;;15.32;7.70;;;;;;;16.20;53.21;97651.88;4441954;32;20108;-82
2022/04/23 06:53:03;;;;;;;15.60;8.23;;;;;;;16.20;52.80;97650.03;4441909;32;20499;-83
2022/04/23 06:55:30;;;;;;;14.30;7.87;;;;;;;16.40;53.06;97649.94;4441801;32;20109;-82
2022/04/23 06:57:55;;;;;;;14.60;7.90;;;;;;;16.43;52.11;97658.47;4455935;32;20145;-82
2022/04/23 07:00:22;;;;;;;12.73;7.40;;;;;;;16.44;52.40;97656.66;4455639;32;20124;-83
2022/04/23 07:02:51;;;;;;;14.15;7.80;;;;;;;16.22;51.95;97661.34;4441854;32;20472;-83
2022/04/23 07:05:17;;;;;;;13.95;7.40;;;;;;;16.23;52.53;97657.72;4455878;32;20440;-83
2022/04/23 07:08:01;;;;;;;14.20;7.62;;;;;;;16.28;52.96;97658.12;4441655;32;20168;-84
2022/04/23 07:10:28;;;;;;;14.35;8.30;;;;;;;16.16;52.83;97664.59;4441907;32;20085;-84
2022/04/23 07:12:54;;;;;;;14.40;7.62;;;;;;;16.17;54.61;97663.63;4455918;32;20707;-83
2022/04/23 07:15:21;;;;;;;13.05;7.25;;;;;;;16.26;54.98;97668.06;4442040;32;20512;-83
2022/04/23 07:17:47;;;;;;;14.40;7.70;;;;;;;16.17;52.83;97670.75;4455767;32;20119;-83
2022/04/23 07:20:14;;;;;;;14.57;6.97;;;;;;;16.05;53.94;97675.41;4428640;32;20157;-83
2022/04/23 07:22:39;;;;;;;13.55;7.18;;;;;;;16.10;53.46;97684.63;4428809;32;20136;-83
2022/04/23 07:25:07;;;;;;;14.45;7.47;;;;;;;15.78;54.35;97682.38;4441594;32;20416;-83
2022/04/23 07:27:33;;;;;;;13.77;7.37;;;;;;;16.02;54.93;97683.69;4455805;32;20495;-83
2022/04/23 07:29:58;;;;;;;14.77;7.37;;;;;;;16.29;54.19;97678.41;4455590;32;20126;-83
2022/04/23 07:32:24;;;;;;;14.43;8.10;;;;;;;16.54;53.53;97672.56;4441149;32;20113;-84
2022/04/23 07:37:34;;;;;;;14.50;8.05;;;;;;;16.90;51.34;97676.97;4455282;32;20400;-85
2022/04/23 07:40:05;;;;;;;14.25;7.75;;;;;;;17.15;51.30;97677.19;4454597;32;20093;-82
2022/04/23 07:42:31;;;;;;;14.15;7.85;;;;;;;17.21;50.04;97691.69;4453762;32;20109;-88
2022/04/23 07:44:57;;;;;;;15.25;8.35;;;;;;;16.95;50.19;97694.28;4441299;32;20514;-82
2022/04/23 07:47:23;;;;;;;15.02;8.07;;;;;;;16.46;52.13;97706.03;4455291;32;20088;-78
2022/04/23 07:49:48;;;;;;;15.07;7.93;;;;;;;16.16;53.32;97706.28;4455243;32;20120;-73
2022/04/23 07:52:14;;;;;;;14.40;7.50;;;;;;;16.15;53.86;97699.28;4454919;32;20120;-76
2022/04/23 07:54:41;;;;;;;15.88;7.32;;;;;;;15.42;54.72;97707.81;4455534;32;20096;-84
2022/04/23 07:57:07;;;;;;;12.70;7.07;;;;;;;15.79;53.98;97702.62;4455042;32;20188;-84
2022/04/23 07:59:33;;;;;;;14.40;7.18;;;;;;;15.81;54.10;97699.81;4455007;32;20088;-83
2022/04/23 08:02:02;;;;;;;13.10;7.62;;;;;;;16.01;53.83;97706.78;4440920;32;20109;-83
2022/04/23 08:04:27;;;;;;;12.85;7.20;;;;;;;16.07;53.40;97711.50;4454837;32;20097;-83
2022/04/23 08:06:53;;;;;;;12.80;6.82;;;;;;;16.26;53.90;97707.06;4454582;32;20115;-83
2022/04/23 08:09:18;;;;;;;14.27;6.97;;;;;;;16.42;52.63;97711.78;4440737;32;20092;-83
2022/04/23 08:11:44;;;;;;;14.55;7.55;;;;;;;16.38;52.50;97721.00;4440980;32;20365;-84
2022/04/23 08:14:09;;;;;;;14.30;7.43;;;;;;;16.42;52.27;97719.75;4454861;32;20093;-85
2022/04/23 08:16:35;;;;;;;12.98;7.05;;;;;;;16.52;52.59;97717.88;4427863;32;20471;-84
2022/04/23 08:19:01;;;;;;;14.40;7.45;;;;;;;16.68;52.15;97722.56;4454502;32;20144;-82
2022/04/23 08:21:26;;;;;;;14.20;7.62;;;;;;;16.84;51.81;97719.28;4454363;32;20138;-81
2022/04/23 08:23:52;;;;;;;13.50;7.15;;;;;;;16.69;51.17;97714.44;4440450;32;20109;-84
2022/04/23 08:26:17;;;;;;;13.05;7.32;;;;;;;16.62;51.93;97717.84;4454505;32;20466;-81
2022/04/23 08:31:27;;;;;;;15.02;7.47;;;;;;;17.03;51.18;97721.81;4454748;32;20171;-82
2022/04/23 08:33:59;;;;;;;12.93;6.65;;;;;;;17.05;51.64;97724.31;4454676;32;20144;-83
2022/04/23 08:36:26;;;;;;;14.27;7.32;;;;;;;17.18;51.25;97730.09;4454401;32;20092;-81
2022/04/23 08:38:55;;;;;;;15.02;7.37;;;;;;;17.33;51.62;97726.94;4454510;32;20088;-81
2022/04/23 08:41:25;;;;;;;12.93;6.85;;;;;;;17.23;50.20;97732.31;4454255;32;20088;-81
2022/04/23 08:43:51;;;;;;;12.90;6.50;;;;;;;17.27;50.26;97733.69;4454368;32;20106;-80
2022/04/23 08:46:17;;;;;;;14.20;7.70;;;;;;;17.32;50.03;97723.41;4454082;32;20085;-80
2022/04/23 08:48:46;;;;;;;11.57;6.07;;;;;;;17.62;49.80;97721.34;4453918;32;20437;-81
2022/04/23 08:51:13;;;;;;;12.93;6.28;;;;;;;17.84;48.61;97722.69;4439996;32;20166;-85
2022/04/23 08:53:40;;;;;;;14.07;6.43;;;;;;;18.12;48.19;97715.41;4440234;32;20181;-85
2022/04/23 08:56:07;;;;;;;14.02;6.75;;;;;;;18.56;46.81;97722.44;4431949;32;20168;-84
2022/04/23 08:58:33;;;;;;;13.18;6.22;;;;;;;18.70;45.94;97720.97;4430845;32;20093;-84
2022/04/23 09:00:58;;;;;;;12.65;6.45;;;;;;;18.98;46.68;97718.94;4447345;32;20098;-84
2022/04/23 09:03:23;;;;;;;12.27;6.18;;;;;;;19.24;45.81;97727.66;4440185;32;20351;-84
2022/04/23 09:05:52;;;;;;;12.10;6.05;;;;;;;19.53;44.56;97721.03;4448370;32;20123;-85
2022/04/23 09:08:18;;;;;;;12.82;6.57;;;;;;;19.69;44.93;97722.84;4427331;32;20119;-84
2022/04/23 09:10:54;;;;;;;11.27;6.10;;;;;;;19.80;43.82;97724.38;4437596;32;20109;-83
2022/04/23 09:13:26;;;;;;;10.48;5.75;;;;;;;19.58;43.96;97732.03;4445653;32;20096;-85
2022/04/23 09:24:49;;;;;;;12.75;6.55;;;;;;;19.69;42.96;97754.09;4451791;32;20453;-87
2022/04/23 09:27:15;;;;;;;11.88;5.90;;;;;;;19.88;42.81;97764.47;4445400;32;20101;-89
2022/04/23 09:29:56;;;;;;;13.52;6.55;;;;;;;20.00;42.35;97762.28;4445804;32;20106;-85
2022/04/23 09:32:21;;;;;;;11.98;5.80;;;;;;;20.10;41.89;97759.44;4437910;32;20157;-86
2022/04/23 09:35:03;;;;;;;11.82;5.68;;;;;;;20.18;42.08;97754.06;4442091;32;20390;-86
2022/04/23 09:38:11;;;;;;;12.18;5.90;;;;;;;20.00;42.00;97762.28;4432972;32;20118;-85
2022/04/23 09:40:19;;;;;;;11.90;5.85;;;;;;;20.10;41.39;97767.44;4451421;32;20115;-88
2022/04/23 09:43:02;;;;;;;11.63;6.20;;;;;;;20.17;40.81;97765.78;4427521;32;20109;-89
2022/04/23 09:45:29;;;;;;;11.50;5.35;;;;;;;20.22;42.18;97763.41;4432471;32;20121;-86
2022/04/23 09:48:03;;;;;;;12.88;6.07;;;;;;;20.35;41.15;97755.69;4432738;32;20218;-86
2022/04/23 09:50:39;;;;;;;11.50;5.47;;;;;;;20.18;40.09;97762.91;4441594;32;20089;-86
2022/04/23 09:53:12;;;;;;;11.57;5.62;;;;;;;20.25;40.91;97755.06;4429606;32;20121;-86
2022/04/23 09:55:38;;;;;;;10.77;5.50;;;;;;;20.37;40.11;97755.53;4437361;32;20122;-87
2022/04/23 09:58:08;;;;;;;12.15;6.43;;;;;;;20.46;39.80;97751.81;4429020;32;20094;-82
2022/04/23 10:00:38;;;;;;;10.98;5.43;;;;;;;20.50;41.31;97763.84;4450337;32;20147;-82
2022/04/23 10:03:06;;;;;;;12.50;6.10;;;;;;;20.53;40.78;97765.34;4443741;32;20089;-84
2022/04/23 10:05:37;;;;;;;12.80;5.72;;;;;;;20.65;39.01;97765.84;4430538;32;20109;-83
2022/04/23 10:08:05;;;;;;;12.75;6.80;;;;;;;20.76;39.27;97768.97;4446957;32;20444;-82
2022/04/23 10:10:33;;;;;;;12.98;6.47;;;;;;;20.79;40.16;97773.97;4425674;32;20089;-82
2022/04/23 10:13:00;;;;;;;13.40;6.72;;;;;;;20.77;40.57;97770.66;4434049;32;20118;-82
2022/04/23 10:15:26;;;;;;;13.62;6.70;;;;;;;20.87;41.02;97766.94;4444330;32;20153;-84
2022/04/23 10:17:51;;;;;;;13.18;6.53;;;;;;;20.79;40.15;97771.31;4415875;32;20506;-82
2022/04/23 10:20:17;;;;;;;12.07;6.30;;;;;;;20.70;40.17;97776.84;4433831;32;20097;-82
2022/04/23 10:23:06;;;;;;;11.57;5.90;;;;;;;20.54;40.88;97783.91;4423967;32;20160;-83
2022/04/23 10:25:54;;;;;;;14.23;5.68;;;;;;;20.57;40.75;97790.75;4432285;32;20393;-83
2022/04/23 10:28:20;;;;;;;13.55;6.78;;;;;;;20.43;39.79;97789.63;4434812;32;20093;-83
2022/04/23 10:30:46;;;;;;;12.63;6.78;;;;;;;20.16;40.84;97793.50;4441729;32;20132;-83
2022/04/23 10:33:28;;;;;;;14.60;6.65;;;;;;;19.92;40.79;97791.69;4448373;32;20124;-84
2022/04/23 10:36:10;;;;;;;12.88;6.43;;;;;;;19.72;41.26;97792.03;4449148;32;20109;-83
2022/04/23 10:38:42;;;;;;;12.23;6.45;;;;;;;19.54;41.50;97799.31;4441171;32;20090;-91
2022/04/23 10:41:09;;;;;;;12.57;6.22;;;;;;;19.42;41.42;97794.28;4435213;32;20601;-89
2022/04/23 10:43:34;;;;;;;14.55;6.53;;;;;;;19.23;42.66;97787.41;4430094;32;20105;-86
2022/04/23 10:46:00;;;;;;;11.82;5.90;;;;;;;19.10;42.63;97788.88;4439046;32;20113;-85
2022/04/23 10:48:30;;;;;;;14.02;6.57;;;;;;;19.01;43.01;97796.84;4451283;32;20377;-83
2022/04/23 10:51:04;;;;;;;13.48;6.82;;;;;;;18.97;43.45;97790.16;4428023;32;20086;-93
2022/04/23 10:53:37;;;;;;;13.18;6.90;;;;;;;18.93;43.45;97793.31;4432371;32;20117;-83
2022/04/23 10:56:13;;;;;;;12.98;6.28;;;;;;;18.58;43.27;97798.66;4454242;32;20536;-91
2022/04/23 10:58:40;;;;;;;13.23;6.65;;;;;;;18.61;43.47;97811.66;4427147;32;20476;-89
2022/04/23 11:01:29;;;;;;;14.10;7.00;;;;;;;18.53;44.00;97810.78;4435032;32;20090;-87
2022/04/23 11:03:55;;;;;;;13.95;7.07;;;;;;;18.49;44.76;97810.25;4446902;32;20400;-82
2022/04/23 11:12:18;;;;;;;12.48;6.32;;;;;;;18.24;46.45;97818.09;4451376;32;20752;-91
2022/04/23 11:14:45;;;;;;;13.10;6.60;;;;;;;18.11;47.21;97814.16;4423922;32;20769;-91
2022/04/23 11:17:14;;;;;;;13.20;6.82;;;;;;;18.09;47.84;97814.31;4443633;32;20444;-90
2022/04/23 11:19:40;;;;;;;12.80;6.72;;;;;;;18.07;48.23;97813.63;4444093;32;20120;-92
2022/04/23 11:22:06;;;;;;;13.50;7.37;;;;;;;18.08;48.31;97815.31;4449117;32;20151;-92
2022/04/23 11:24:32;;;;;;;14.55;7.28;;;;;;;17.97;47.14;97813.72;4426121;32;20113;-88
2022/04/23 11:26:58;;;;;;;12.18;6.30;;;;;;;18.01;46.83;97816.91;4435376;32;20597;-90
2022/04/23 11:29:26;;;;;;;13.45;6.85;;;;;;;17.98;47.57;97818.06;4445099;32;20097;-90
2022/04/23 11:31:56;;;;;;;14.15;7.68;;;;;;;18.02;47.67;97815.91;4443176;32;20116;-91
2022/04/23 11:34:22;;;;;;;13.35;6.70;;;;;;;17.95;46.16;97822.88;4435878;32;20169;-92
2022/04/23 11:36:48;;;;;;;11.85;6.15;;;;;;;17.97;45.96;97826.22;4441534;32;21192;-92
2022/04/23 11:39:14;;;;;;;13.05;7.10;;;;;;;17.99;45.39;97824.25;4420410;32;20105;-91
2022/04/23 11:41:50;;;;;;;13.48;6.43;;;;;;;17.78;46.61;97821.87;4446595;32;20085;-92